Aviation Digital Data Service (ADDS)

Output produced by METARs form (1223 UTC 22 March 2019)
found at http://www.aviationweather.gov/metar/data/
 
Forecast for: VYYY (YANGON INTL MYAN, VN)
Text: TAF VYYY 221100Z 2212/2312 25006KT 8000 NSC
Forecast period: 1200 UTC 22 March 2019 to 1200 UTC 23 March 2019
Forecast type: FROM: standard forecast or significant change
Winds: from the WSW (250 degrees) at 7 MPH (6 knots; 3.1 m/s)
Visibility: 5 miles (8 km)
Ceiling: unknown
Clouds: missing
Weather: no significant weather forecast for this period
Text: TEMPO 2212/2218 27006KT 7000 SCT120
Forecast period: 1200 to 1800 UTC 22 March 2019
Forecast type: TEMPORARY: The following changes expected for less than half the time period
Winds: from the W (270 degrees) at 7 MPH (6 knots; 3.1 m/s)
Visibility: 4 miles (7 km)
Ceiling: at least 12,000 feet AGL
Clouds: scattered clouds at 12000 feet AGL
Weather: no significant weather forecast for this period